Time;durP1;ratioP1;P1;durP2;ratioP2;P2;SDS_P1;SDS_P2;PMS_P1;PMS_P2;Temp;Humidity;BMP_temperature;BMP_pressure;BME280_temperature;BME280_humidity;BME280_pressure;Samples;Min_cycle;Max_cycle;Signal;HPM_P1;HPM_P2
2022/04/13 00:00:39;;;;;;;17.83;10.18;;;8.10;99.90;;;;;;5034400;28;20414;-68
2022/04/13 00:03:05;;;;;;;21.83;10.45;;;8.10;99.90;;;;;;5034242;28;20018;-68
2022/04/13 00:05:32;;;;;;;24.05;11.68;;;8.10;99.90;;;;;;5034663;28;20021;-68
2022/04/13 00:07:58;;;;;;;23.13;11.18;;;8.10;99.90;;;;;;5033302;28;20045;-68
2022/04/13 00:10:23;;;;;;;22.75;10.90;;;8.10;99.90;;;;;;5033955;28;20080;-68
2022/04/13 00:12:49;;;;;;;21.15;11.65;;;8.10;99.90;;;;;;5033983;28;20101;-68
2022/04/13 00:15:14;;;;;;;24.20;10.85;;;8.00;99.90;;;;;;5034053;28;20062;-68
2022/04/13 00:17:40;;;;;;;23.83;11.07;;;8.00;99.90;;;;;;5034278;28;20025;-68
2022/04/13 00:20:07;;;;;;;19.35;9.65;;;8.00;99.90;;;;;;5033933;28;20025;-68
2022/04/13 00:22:33;;;;;;;17.45;10.15;;;8.00;99.90;;;;;;5033949;28;20456;-68
2022/04/13 00:24:58;;;;;;;19.27;10.40;;;8.00;99.90;;;;;;5033758;28;20036;-68
2022/04/13 00:27:24;;;;;;;16.65;10.00;;;8.00;99.90;;;;;;5033792;28;20026;-68
2022/04/13 00:29:49;;;;;;;23.92;10.48;;;8.00;99.90;;;;;;5033783;28;20499;-68
2022/04/13 00:32:15;;;;;;;25.63;11.13;;;8.00;99.90;;;;;;5033681;28;20528;-68
2022/04/13 00:34:41;;;;;;;20.45;10.32;;;8.00;99.90;;;;;;5034232;28;20032;-68
2022/04/13 00:37:07;;;;;;;23.65;10.85;;;8.10;99.90;;;;;;5033734;28;20095;-68
2022/04/13 00:39:32;;;;;;;23.90;11.48;;;8.10;99.90;;;;;;5033648;28;20034;-68
2022/04/13 00:42:00;;;;;;;17.38;10.50;;;8.10;99.90;;;;;;5033602;28;20433;-68
2022/04/13 00:44:27;;;;;;;20.20;10.45;;;8.10;99.90;;;;;;5033740;28;20033;-68
2022/04/13 00:46:54;;;;;;;21.70;10.13;;;8.10;99.90;;;;;;5033664;28;20474;-68
2022/04/13 00:49:20;;;;;;;22.38;10.90;;;8.10;99.90;;;;;;5033538;28;20025;-68
2022/04/13 00:51:45;;;;;;;18.58;10.50;;;8.10;99.90;;;;;;5033607;28;20108;-68
2022/04/13 00:54:13;;;;;;;21.88;9.77;;;8.10;99.90;;;;;;5033566;28;20076;-68
2022/04/13 00:56:41;;;;;;;19.80;10.60;;;8.10;99.90;;;;;;5033625;28;20029;-68
2022/04/13 00:59:12;;;;;;;25.92;11.02;;;8.10;99.90;;;;;;5033672;28;20117;-68
2022/04/13 01:01:42;;;;;;;22.83;9.80;;;8.10;99.90;;;;;;5033592;28;20033;-68
2022/04/13 01:04:11;;;;;;;22.05;10.02;;;8.00;99.90;;;;;;5033764;28;20030;-68
2022/04/13 01:06:38;;;;;;;22.02;10.88;;;8.00;99.90;;;;;;5033485;28;20171;-68
2022/04/13 01:09:04;;;;;;;18.08;10.57;;;7.90;99.90;;;;;;5033452;28;20029;-68
2022/04/13 01:11:30;;;;;;;24.13;10.27;;;7.80;99.90;;;;;;5033473;28;20493;-68
2022/04/13 01:13:57;;;;;;;22.90;10.77;;;7.70;99.90;;;;;;5033214;28;20104;-68
2022/04/13 01:16:23;;;;;;;19.38;10.63;;;7.70;99.90;;;;;;5033312;28;20535;-68
2022/04/13 01:18:49;;;;;;;22.98;10.73;;;7.60;99.90;;;;;;5035944;28;20112;-68
2022/04/13 01:21:17;;;;;;;21.98;11.05;;;7.60;99.90;;;;;;5037284;28;20486;-68
2022/04/13 01:23:42;;;;;;;26.90;10.20;;;7.50;99.90;;;;;;5037245;28;20503;-68
2022/04/13 01:26:10;;;;;;;19.38;10.18;;;7.50;99.90;;;;;;5037257;28;20079;-68
2022/04/13 01:28:36;;;;;;;18.52;9.55;;;7.50;99.90;;;;;;5037291;28;20049;-68
2022/04/13 01:31:01;;;;;;;18.08;10.35;;;7.50;99.90;;;;;;5037487;28;20462;-68
2022/04/13 01:33:28;;;;;;;23.90;10.43;;;7.50;99.90;;;;;;5037098;28;20076;-68
2022/04/13 01:35:56;;;;;;;21.90;11.23;;;7.50;99.90;;;;;;5036968;28;20021;-68
2022/04/13 01:38:21;;;;;;;23.65;11.13;;;7.60;99.90;;;;;;5037068;28;20416;-68
2022/04/13 01:40:49;;;;;;;18.88;9.07;;;7.60;99.90;;;;;;5036979;28;20117;-68
2022/04/13 01:43:15;;;;;;;17.95;9.55;;;7.50;99.90;;;;;;5036812;28;20014;-68
2022/04/13 01:45:40;;;;;;;17.50;10.18;;;7.50;99.90;;;;;;5036639;28;20486;-68
2022/04/13 01:48:09;;;;;;;17.73;10.55;;;7.50;99.90;;;;;;5037079;28;20029;-68
2022/04/13 01:50:35;;;;;;;22.65;10.60;;;7.40;99.90;;;;;;5036797;28;20112;-68
2022/04/13 01:53:00;;;;;;;25.55;10.65;;;7.30;99.90;;;;;;5037040;28;20029;-68
2022/04/13 01:55:26;;;;;;;15.57;9.45;;;7.30;99.90;;;;;;5036779;28;20156;-68
2022/04/13 01:57:52;;;;;;;35.55;10.93;;;7.30;99.90;;;;;;5036824;28;20078;-68
2022/04/13 02:00:17;;;;;;;24.30;10.00;;;7.30;99.90;;;;;;5036701;28;20033;-68
2022/04/13 02:02:43;;;;;;;19.58;10.95;;;7.30;99.90;;;;;;5018804;28;20029;-68
2022/04/13 02:05:09;;;;;;;20.00;10.52;;;7.20;99.90;;;;;;5036809;28;20112;-68
2022/04/13 02:07:35;;;;;;;20.35;10.38;;;7.30;99.90;;;;;;5036909;28;20032;-68
2022/04/13 02:10:01;;;;;;;19.35;10.23;;;7.30;99.90;;;;;;5036497;28;20413;-68
2022/04/13 02:12:27;;;;;;;18.45;10.20;;;7.30;99.90;;;;;;5036511;28;20486;-68
2022/04/13 02:14:53;;;;;;;17.25;10.18;;;7.30;99.90;;;;;;5036351;28;20053;-68
2022/04/13 02:17:21;;;;;;;18.77;10.00;;;7.30;99.90;;;;;;5036365;28;20108;-68
2022/04/13 02:19:46;;;;;;;19.05;10.30;;;7.40;99.90;;;;;;5036032;28;20026;-68
2022/04/13 02:22:12;;;;;;;23.10;10.13;;;7.40;99.90;;;;;;5035987;28;20025;-68
2022/04/13 02:24:40;;;;;;;18.13;8.93;;;7.50;99.90;;;;;;5036024;28;20171;-68
2022/04/13 02:27:09;;;;;;;21.25;10.00;;;7.50;99.90;;;;;;5036263;28;20029;-68
2022/04/13 02:29:36;;;;;;;23.88;9.52;;;7.50;99.90;;;;;;5035247;28;20025;-68
2022/04/13 02:32:05;;;;;;;21.42;8.43;;;7.50;99.90;;;;;;5036307;28;20018;-68
2022/04/13 02:34:32;;;;;;;21.92;9.93;;;7.50;99.90;;;;;;5036944;28;20017;-68
2022/04/13 02:36:57;;;;;;;18.73;8.95;;;7.50;99.90;;;;;;5036291;28;20087;-68
2022/04/13 02:39:23;;;;;;;14.98;9.60;;;7.40;99.90;;;;;;5036265;28;20116;-68
2022/04/13 02:41:49;;;;;;;20.08;10.65;;;7.40;99.90;;;;;;5036627;28;20040;-68
2022/04/13 02:44:15;;;;;;;18.85;9.70;;;7.40;99.90;;;;;;5036344;28;20533;-68
2022/04/13 02:46:41;;;;;;;20.52;9.13;;;7.40;99.90;;;;;;5035834;28;20036;-68
2022/04/13 02:49:07;;;;;;;21.33;10.15;;;7.40;99.90;;;;;;5036345;28;20025;-68
2022/04/13 02:51:33;;;;;;;19.25;9.10;;;7.40;99.90;;;;;;5036525;28;20013;-68
2022/04/13 02:53:59;;;;;;;18.40;9.45;;;7.40;99.90;;;;;;5035789;28;20034;-68
2022/04/13 02:56:24;;;;;;;18.00;9.70;;;7.30;99.90;;;;;;5036098;28;20031;-68
2022/04/13 02:58:50;;;;;;;14.00;9.32;;;7.30;99.90;;;;;;5035970;28;20040;-68
2022/04/13 03:01:15;;;;;;;23.15;10.15;;;7.30;99.90;;;;;;5036268;28;20112;-68
2022/04/13 03:03:41;;;;;;;16.77;9.15;;;7.20;99.90;;;;;;5035601;28;20021;-68
2022/04/13 03:06:06;;;;;;;21.13;9.63;;;7.30;99.90;;;;;;5035395;28;20048;-68
2022/04/13 03:08:32;;;;;;;17.33;10.30;;;7.20;99.90;;;;;;5035739;28;20017;-68
2022/04/13 03:10:58;;;;;;;13.68;8.80;;;7.20;99.90;;;;;;5035480;28;20029;-68
2022/04/13 03:13:23;;;;;;;14.88;8.82;;;7.20;99.90;;;;;;5035706;28;20030;-68
2022/04/13 03:15:49;;;;;;;18.92;10.40;;;7.20;99.90;;;;;;5035514;28;20021;-68
2022/04/13 03:18:14;;;;;;;18.33;8.68;;;7.10;99.90;;;;;;5035563;28;20485;-68
2022/04/13 03:20:40;;;;;;;20.23;9.52;;;7.10;99.90;;;;;;5035407;28;20022;-68
2022/04/13 03:23:05;;;;;;;14.95;9.57;;;7.00;99.90;;;;;;5035550;28;20088;-68
2022/04/13 03:25:33;;;;;;;17.75;9.18;;;7.00;99.90;;;;;;5035651;28;20048;-68
2022/04/13 03:27:59;;;;;;;16.13;10.27;;;6.90;99.90;;;;;;5035215;28;20482;-68
2022/04/13 03:30:24;;;;;;;17.38;9.57;;;6.90;99.90;;;;;;5035195;28;20108;-68
2022/04/13 03:32:53;;;;;;;15.43;8.52;;;6.90;99.90;;;;;;5035374;28;20053;-68
2022/04/13 03:35:19;;;;;;;24.00;9.70;;;6.80;99.90;;;;;;5035596;28;20057;-68
2022/04/13 03:37:44;;;;;;;15.65;9.40;;;6.80;99.90;;;;;;5035486;28;20061;-68
2022/04/13 03:40:11;;;;;;;20.58;9.75;;;6.90;99.90;;;;;;5035323;28;20037;-68
2022/04/13 03:42:38;;;;;;;24.80;10.88;;;6.90;99.90;;;;;;5035216;28;20075;-68
2022/04/13 03:45:06;;;;;;;19.27;9.98;;;6.90;99.90;;;;;;5035645;28;20068;-68
2022/04/13 03:47:31;;;;;;;15.20;9.02;;;7.00;99.90;;;;;;5035061;28;20033;-68
2022/04/13 03:49:57;;;;;;;18.05;10.13;;;7.00;99.90;;;;;;5035273;28;20097;-68
2022/04/13 03:52:23;;;;;;;18.30;9.80;;;7.00;99.90;;;;;;5035625;28;20435;-68
2022/04/13 03:54:49;;;;;;;19.73;10.32;;;7.10;99.90;;;;;;5035011;28;20030;-68
2022/04/13 03:57:14;;;;;;;22.58;10.20;;;7.10;99.90;;;;;;5035350;28;20382;-68
2022/04/13 03:59:40;;;;;;;18.30;9.73;;;7.20;99.90;;;;;;5034947;28;20033;-68
2022/04/13 04:02:06;;;;;;;18.50;10.07;;;7.20;99.90;;;;;;5035404;28;20037;-68
2022/04/13 04:04:31;;;;;;;16.75;8.73;;;7.30;99.90;;;;;;5035139;28;20029;-68
2022/04/13 04:06:57;;;;;;;15.80;9.10;;;7.30;99.90;;;;;;5034902;28;20119;-68
2022/04/13 04:09:22;;;;;;;18.75;9.93;;;7.30;99.90;;;;;;5034677;28;20056;-68
2022/04/13 04:11:48;;;;;;;16.65;8.50;;;7.30;99.90;;;;;;5035156;28;20026;-68
2022/04/13 04:14:13;;;;;;;16.20;9.30;;;7.30;99.90;;;;;;5034958;28;20393;-68
2022/04/13 04:16:39;;;;;;;15.13;8.85;;;7.30;99.90;;;;;;5034948;28;20025;-68
2022/04/13 04:19:05;;;;;;;17.02;9.75;;;7.30;99.90;;;;;;5034441;28;20152;-68
2022/04/13 04:21:30;;;;;;;21.92;8.07;;;7.30;99.90;;;;;;5035093;28;20064;-68
2022/04/13 04:23:56;;;;;;;16.50;9.30;;;7.30;99.90;;;;;;5034578;28;20078;-68
2022/04/13 04:26:21;;;;;;;22.15;9.55;;;7.30;99.90;;;;;;5034200;28;20033;-68
2022/04/13 04:28:47;;;;;;;16.42;8.73;;;7.30;99.90;;;;;;5034248;28;20036;-68
2022/04/13 04:31:12;;;;;;;19.17;9.32;;;7.30;99.90;;;;;;5034332;28;20393;-68
2022/04/13 04:33:38;;;;;;;18.58;10.02;;;7.30;99.90;;;;;;5034272;28;20521;-68
2022/04/13 04:36:04;;;;;;;17.10;9.25;;;7.30;99.90;;;;;;5034138;28;20025;-68
2022/04/13 04:38:32;;;;;;;19.10;9.40;;;7.40;99.90;;;;;;5033999;28;20482;-68
2022/04/13 04:40:59;;;;;;;14.95;7.90;;;7.40;99.90;;;;;;5034077;28;20029;-68
2022/04/13 04:43:24;;;;;;;18.25;9.10;;;7.60;99.90;;;;;;5034404;28;20024;-68
2022/04/13 04:45:50;;;;;;;19.83;9.80;;;7.60;99.90;;;;;;5034088;28;20021;-68
2022/04/13 04:48:15;;;;;;;19.88;8.95;;;7.60;99.90;;;;;;5034347;28;20245;-68
2022/04/13 04:50:41;;;;;;;14.40;8.70;;;7.60;99.90;;;;;;5034257;28;20029;-68
2022/04/13 04:53:06;;;;;;;17.05;8.35;;;7.60;99.90;;;;;;5037406;28;20026;-68
2022/04/13 04:55:32;;;;;;;13.43;8.23;;;7.70;99.90;;;;;;5040518;28;20074;-68
2022/04/13 04:57:58;;;;;;;17.70;9.00;;;7.70;99.90;;;;;;5040331;28;20029;-68
2022/04/13 05:00:24;;;;;;;19.27;8.65;;;7.70;99.90;;;;;;5040335;28;20017;-68
2022/04/13 05:02:50;;;;;;;18.60;8.10;;;7.70;99.90;;;;;;5040480;28;20032;-68
2022/04/13 05:05:17;;;;;;;16.83;7.95;;;7.80;99.90;;;;;;5040778;28;20054;-68
2022/04/13 05:07:44;;;;;;;23.60;8.65;;;7.80;99.90;;;;;;5040546;28;20032;-68
2022/04/13 05:10:10;;;;;;;18.88;9.73;;;7.90;99.90;;;;;;5022575;28;20045;-68
2022/04/13 05:12:47;;;;;;;18.35;8.98;;;7.90;99.90;;;;;;5040482;28;20017;-68
2022/04/13 05:15:13;;;;;;;24.33;9.57;;;7.90;99.90;;;;;;5059988;22;20040;-67
2022/04/13 05:17:39;;;;;;;20.13;8.65;;;8.00;99.90;;;;;;5060009;28;20036;-67
2022/04/13 05:20:06;;;;;;;22.88;8.68;;;8.00;99.90;;;;;;5059693;28;20033;-67
2022/04/13 05:22:32;;;;;;;18.40;8.93;;;8.10;99.90;;;;;;5059908;28;20392;-67
2022/04/13 05:25:03;;;;;;;20.27;8.27;;;8.10;99.90;;;;;;5059506;28;20025;-67
2022/04/13 05:27:29;;;;;;;13.75;8.23;;;8.20;99.90;;;;;;5059791;28;20119;-67
2022/04/13 05:29:54;;;;;;;17.70;8.35;;;8.30;99.90;;;;;;5059601;28;20484;-67
2022/04/13 05:32:20;;;;;;;21.10;9.23;;;8.40;99.90;;;;;;5059556;28;20017;-67
2022/04/13 05:34:45;;;;;;;14.45;8.13;;;8.50;99.90;;;;;;5041552;28;20056;-67
2022/04/13 05:37:11;;;;;;;14.65;7.75;;;8.60;99.90;;;;;;5059532;28;20033;-67
2022/04/13 05:39:38;;;;;;;13.93;7.57;;;8.60;99.90;;;;;;5060023;28;20026;-67
2022/04/13 05:42:04;;;;;;;14.32;8.20;;;8.60;99.90;;;;;;5060073;28;20077;-67
2022/04/13 05:44:29;;;;;;;17.55;9.10;;;8.60;99.90;;;;;;5059431;28;20111;-67
2022/04/13 05:46:55;;;;;;;18.35;7.80;;;8.60;99.90;;;;;;5059359;28;20370;-67
2022/04/13 05:49:20;;;;;;;16.63;7.88;;;8.60;99.90;;;;;;5059430;28;20429;-67
2022/04/13 05:51:46;;;;;;;16.08;8.93;;;8.60;99.90;;;;;;5059353;28;20029;-67
2022/04/13 05:54:11;;;;;;;15.68;8.70;;;8.70;99.90;;;;;;5059555;28;20070;-67
2022/04/13 05:56:37;;;;;;;14.55;8.30;;;8.70;99.90;;;;;;5059228;28;20116;-67
2022/04/13 05:59:03;;;;;;;18.65;8.43;;;8.80;99.90;;;;;;5059321;28;20083;-67
2022/04/13 06:01:28;;;;;;;14.80;8.32;;;8.80;99.90;;;;;;5059303;28;20037;-67
2022/04/13 06:03:54;;;;;;;18.55;9.27;;;8.80;99.90;;;;;;5058311;28;20024;-67
2022/04/13 06:06:21;;;;;;;13.85;8.48;;;8.80;99.90;;;;;;5055423;28;20059;-67
2022/04/13 06:08:46;;;;;;;18.63;9.02;;;8.90;99.90;;;;;;5056072;28;20017;-67
2022/04/13 06:11:12;;;;;;;13.75;7.95;;;9.00;99.90;;;;;;5056043;28;20116;-67
2022/04/13 06:13:38;;;;;;;15.52;8.55;;;9.00;99.90;;;;;;5056215;28;20040;-67
2022/04/13 06:16:04;;;;;;;15.38;8.73;;;9.10;99.90;;;;;;5055867;28;20033;-67
2022/04/13 06:18:29;;;;;;;16.75;8.93;;;9.10;99.90;;;;;;5056134;28;20029;-67
2022/04/13 06:20:55;;;;;;;19.17;8.23;;;9.20;99.90;;;;;;5055848;28;20491;-67
2022/04/13 06:23:20;;;;;;;18.50;7.63;;;9.20;99.90;;;;;;5056053;28;20427;-67
2022/04/13 06:25:46;;;;;;;13.38;8.30;;;9.20;99.90;;;;;;5055841;28;20029;-67
2022/04/13 06:28:12;;;;;;;15.93;8.27;;;9.30;99.90;;;;;;5055847;28;20036;-67
2022/04/13 06:30:37;;;;;;;15.65;8.65;;;9.40;99.90;;;;;;5055654;28;20028;-67
2022/04/13 06:33:03;;;;;;;17.60;8.50;;;9.40;99.90;;;;;;5055622;28;20052;-67
2022/04/13 06:35:28;;;;;;;16.63;9.88;;;9.50;99.90;;;;;;5055760;28;20114;-67
2022/04/13 06:37:54;;;;;;;21.55;9.38;;;9.60;99.90;;;;;;5055837;28;20033;-67
2022/04/13 06:40:19;;;;;;;18.25;9.52;;;9.70;99.90;;;;;;5055491;28;20025;-67
2022/04/13 06:42:45;;;;;;;23.35;9.18;;;9.90;99.90;;;;;;5055719;28;20052;-67
2022/04/13 06:45:13;;;;;;;16.58;8.95;;;10.00;99.90;;;;;;5055505;28;20108;-67
2022/04/13 06:47:40;;;;;;;14.70;8.50;;;10.10;99.90;;;;;;5055247;28;20111;-67
2022/04/13 06:50:07;;;;;;;16.90;8.63;;;10.10;99.90;;;;;;5037432;28;20075;-67
2022/04/13 06:52:34;;;;;;;15.27;9.10;;;10.20;99.90;;;;;;5055201;28;20029;-67
2022/04/13 06:55:00;;;;;;;23.65;9.55;;;10.40;99.90;;;;;;5055145;28;20362;-67
2022/04/13 06:57:25;;;;;;;14.90;8.43;;;10.60;99.90;;;;;;5055728;28;20028;-67
2022/04/13 06:59:51;;;;;;;13.98;8.73;;;10.60;99.90;;;;;;5055098;28;20421;-67
2022/04/13 07:02:16;;;;;;;15.63;7.93;;;10.80;99.90;;;;;;5037204;28;20103;-67
2022/04/13 07:04:42;;;;;;;16.92;8.73;;;10.80;99.90;;;;;;5054921;28;20064;-67
2022/04/13 07:07:08;;;;;;;14.60;8.13;;;10.90;99.90;;;;;;5054905;28;20121;-67
2022/04/13 07:09:34;;;;;;;14.48;8.65;;;10.90;99.90;;;;;;5055223;28;20104;-67
2022/04/13 07:11:59;;;;;;;19.20;9.52;;;10.90;99.90;;;;;;5055144;28;20594;-67
2022/04/13 07:14:25;;;;;;;13.15;8.32;;;10.90;99.90;;;;;;5054891;28;20021;-67
2022/04/13 07:16:51;;;;;;;18.25;8.18;;;11.00;99.90;;;;;;5054292;28;20037;-67
2022/04/13 07:19:16;;;;;;;23.83;8.60;;;11.00;99.90;;;;;;5054791;28;20028;-67
2022/04/13 07:21:42;;;;;;;18.88;8.95;;;11.10;99.90;;;;;;5054966;28;20021;-67
2022/04/13 07:24:08;;;;;;;19.80;8.30;;;11.20;99.90;;;;;;5054913;28;20029;-67
2022/04/13 07:26:33;;;;;;;13.95;7.85;;;11.40;99.90;;;;;;5054500;28;20036;-68
2022/04/13 07:28:59;;;;;;;28.63;9.15;;;11.60;99.90;;;;;;5054581;28;20496;-67
2022/04/13 07:31:25;;;;;;;15.82;8.85;;;11.80;99.90;;;;;;5054795;28;20378;-67
2022/04/13 07:33:50;;;;;;;19.90;8.63;;;11.90;99.90;;;;;;5054512;28;20033;-68
2022/04/13 07:36:16;;;;;;;15.45;7.93;;;12.10;99.90;;;;;;5054450;28;20025;-68
2022/04/13 07:38:42;;;;;;;12.80;7.85;;;12.20;99.90;;;;;;5054701;28;20061;-68
2022/04/13 07:41:07;;;;;;;21.05;7.45;;;12.40;99.90;;;;;;5054887;28;20111;-68
2022/04/13 07:43:33;;;;;;;20.70;8.18;;;12.50;99.90;;;;;;5054571;28;20103;-68
2022/04/13 07:45:58;;;;;;;15.48;9.38;;;12.60;99.90;;;;;;5054090;28;20040;-68
2022/04/13 07:48:24;;;;;;;13.73;8.13;;;12.80;99.90;;;;;;5054166;28;20044;-68
2022/04/13 07:50:50;;;;;;;18.42;8.98;;;13.00;99.90;;;;;;5054380;28;20025;-68
2022/04/13 07:53:15;;;;;;;12.23;7.68;;;13.10;99.90;;;;;;5054450;28;20055;-68
2022/04/13 07:55:41;;;;;;;22.08;8.93;;;13.30;99.90;;;;;;5054093;28;20025;-68
2022/04/13 07:58:07;;;;;;;25.33;10.10;;;13.50;99.90;;;;;;5053970;28;20041;-68
2022/04/13 08:00:33;;;;;;;20.38;11.10;;;13.50;99.90;;;;;;5054176;28;20029;-67
2022/04/13 08:02:59;;;;;;;19.65;8.50;;;13.60;99.90;;;;;;5054445;28;20029;-67
2022/04/13 08:05:25;;;;;;;16.27;9.60;;;13.70;99.90;;;;;;5053832;28;20048;-67
2022/04/13 08:07:51;;;;;;;25.00;10.90;;;13.80;99.90;;;;;;5053744;28;20033;-67
2022/04/13 08:10:17;;;;;;;28.00;14.32;;;13.90;99.90;;;;;;5054022;28;20079;-67
2022/04/13 08:12:46;;;;;;;15.73;8.93;;;13.90;99.90;;;;;;5053955;28;20031;-68
2022/04/13 08:15:12;;;;;;;14.88;8.68;;;13.90;99.90;;;;;;5053420;28;20543;-68
2022/04/13 08:17:39;;;;;;;26.42;10.07;;;13.90;99.90;;;;;;5053982;28;20029;-68
2022/04/13 08:20:06;;;;;;;15.25;8.25;;;14.00;99.90;;;;;;5053572;28;20036;-67
2022/04/13 08:22:32;;;;;;;22.02;9.43;;;14.20;99.90;;;;;;5053836;28;20040;-67
2022/04/13 08:24:58;;;;;;;17.05;9.68;;;14.40;99.90;;;;;;5054012;28;20033;-68
2022/04/13 08:27:23;;;;;;;16.80;8.77;;;14.40;99.90;;;;;;5052999;28;20037;-67
2022/04/13 08:29:49;;;;;;;16.92;9.10;;;14.40;99.90;;;;;;5053478;28;20017;-67
2022/04/13 08:32:19;;;;;;;14.68;8.43;;;14.40;99.90;;;;;;5053506;28;20032;-67
2022/04/13 08:34:46;;;;;;;16.08;8.77;;;14.60;99.90;;;;;;5053372;28;20111;-67
2022/04/13 08:37:12;;;;;;;15.18;8.65;;;14.90;99.90;;;;;;5053502;28;20495;-67
2022/04/13 08:39:39;;;;;;;22.23;10.23;;;15.00;99.90;;;;;;5053349;28;20048;-67
2022/04/13 08:42:11;;;;;;;20.55;9.45;;;15.10;99.90;;;;;;5053304;28;20477;-67
2022/04/13 08:44:45;;;;;;;17.30;8.18;;;15.20;99.90;;;;;;5053209;28;20029;-67
2022/04/13 08:47:15;;;;;;;19.67;9.32;;;15.40;99.90;;;;;;5053281;28;20035;-68
2022/04/13 08:49:44;;;;;;;20.17;9.63;;;15.60;99.90;;;;;;5053220;28;20021;-68
2022/04/13 08:52:14;;;;;;;17.95;10.68;;;15.70;99.90;;;;;;5053227;28;20384;-67
2022/04/13 08:54:58;;;;;;;17.77;9.43;;;15.90;99.90;;;;;;5053420;28;20033;-67
2022/04/13 08:57:28;;;;;;;19.80;9.82;;;15.90;99.90;;;;;;5053472;28;20029;-67
2022/04/13 09:00:03;;;;;;;20.88;10.88;;;15.90;99.90;;;;;;5053463;28;20033;-67
2022/04/13 09:02:37;;;;;;;22.50;10.38;;;15.70;99.90;;;;;;5053948;28;20064;-67
2022/04/13 09:05:10;;;;;;;17.67;9.65;;;15.80;99.90;;;;;;5053226;28;20025;-67
2022/04/13 09:07:37;;;;;;;19.25;9.75;;;15.90;99.90;;;;;;5053337;28;20072;-67
2022/04/13 09:10:04;;;;;;;15.43;9.32;;;16.00;99.90;;;;;;5053096;28;20017;-68
2022/04/13 09:12:33;;;;;;;23.27;11.10;;;16.50;99.90;;;;;;5035563;28;20384;-67
2022/04/13 09:15:01;;;;;;;22.20;10.93;;;16.70;99.90;;;;;;5053029;28;20035;-68
2022/04/13 09:17:30;;;;;;;18.67;9.95;;;16.90;99.90;;;;;;5053329;28;20048;-67
2022/04/13 09:19:57;;;;;;;23.80;11.02;;;16.70;99.90;;;;;;5053000;28;20031;-67
2022/04/13 09:22:23;;;;;;;20.65;10.63;;;16.70;99.90;;;;;;5053018;28;20074;-67
2022/04/13 09:24:52;;;;;;;22.38;11.10;;;16.50;99.90;;;;;;5052865;28;20029;-67
2022/04/13 09:27:21;;;;;;;22.20;10.45;;;16.60;99.90;;;;;;5053160;28;20111;-67
2022/04/13 09:29:47;;;;;;;20.45;10.65;;;16.70;99.90;;;;;;5053138;28;20017;-67
2022/04/13 09:32:14;;;;;;;16.67;10.70;;;16.80;99.90;;;;;;5053111;28;20021;-67
2022/04/13 09:34:40;;;;;;;19.88;11.65;;;16.60;99.90;;;;;;5053322;28;20377;-68
2022/04/13 09:37:06;;;;;;;28.13;10.98;;;16.40;99.90;;;;;;5053353;28;20029;-68
2022/04/13 09:39:33;;;;;;;19.02;11.45;;;16.40;99.90;;;;;;5055200;28;20069;-68
2022/04/13 09:42:03;;;;;;;21.17;10.75;;;16.30;99.90;;;;;;5056573;28;20139;-67
2022/04/13 09:44:30;;;;;;;16.48;10.35;;;16.10;99.90;;;;;;5056400;28;20021;-68
2022/04/13 09:47:10;;;;;;;17.80;10.15;;;16.00;99.90;;;;;;5056693;28;20036;-67
2022/04/13 09:49:47;;;;;;;22.50;11.18;;;16.30;99.90;;;;;;5056413;28;20473;-67
2022/04/13 09:52:15;;;;;;;18.95;10.70;;;16.60;99.90;;;;;;5056441;28;20032;-67
2022/04/13 09:54:48;;;;;;;19.52;11.32;;;16.70;99.90;;;;;;5056526;28;20104;-67
2022/04/13 09:57:24;;;;;;;19.10;12.35;;;16.70;99.90;;;;;;5056311;28;20104;-67
2022/04/13 09:59:58;;;;;;;23.80;11.15;;;16.90;99.90;;;;;;5056327;28;20033;-67
2022/04/13 10:02:35;;;;;;;20.40;11.38;;;17.20;99.90;;;;;;5056217;28;20032;-67
2022/04/13 10:05:05;;;;;;;23.27;11.32;;;17.50;99.90;;;;;;5056060;28;20036;-67
2022/04/13 10:07:31;;;;;;;17.15;11.48;;;17.50;99.90;;;;;;5055990;28;20392;-67
2022/04/13 10:09:57;;;;;;;19.02;11.82;;;17.80;99.90;;;;;;5056092;28;20021;-67
2022/04/13 10:12:22;;;;;;;17.95;10.68;;;17.70;99.90;;;;;;5055982;28;20029;-67
2022/04/13 10:14:48;;;;;;;15.98;11.10;;;17.80;99.90;;;;;;5055740;28;20550;-67
2022/04/13 10:17:15;;;;;;;23.67;12.63;;;17.70;99.90;;;;;;5038747;28;20033;-71
2022/04/13 10:19:42;;;;;;;26.30;12.63;;;17.60;99.90;;;;;;5055875;28;20079;-67
2022/04/13 10:22:08;;;;;;;30.70;13.35;;;17.50;99.90;;;;;;5055802;28;20029;-67
2022/04/13 10:24:39;;;;;;;21.05;13.32;;;17.30;99.90;;;;;;5055651;28;20079;-68
2022/04/13 10:27:16;;;;;;;19.67;12.73;;;17.20;99.90;;;;;;5055717;28;20496;-68
2022/04/13 10:29:43;;;;;;;25.48;14.38;;;16.90;99.90;;;;;;5055768;28;20025;-68
2022/04/13 10:32:19;;;;;;;23.55;13.13;;;16.80;99.90;;;;;;5055655;28;20021;-68
2022/04/13 10:34:49;;;;;;;30.98;14.27;;;17.00;99.90;;;;;;5055523;28;20024;-68
2022/04/13 10:37:20;;;;;;;22.10;12.77;;;17.20;99.90;;;;;;5055527;28;20473;-68
2022/04/13 10:39:48;;;;;;;33.65;13.65;;;17.40;99.90;;;;;;5055535;28;20028;-67
2022/04/13 10:42:16;;;;;;;21.67;12.98;;;17.40;99.90;;;;;;5055523;28;20029;-68
2022/04/13 10:44:42;;;;;;;26.08;12.35;;;17.70;99.90;;;;;;5055367;28;20051;-68
2022/04/13 10:47:16;;;;;;;31.45;13.82;;;17.80;99.90;;;;;;5055275;28;20029;-68
2022/04/13 10:49:46;;;;;;;23.55;11.50;;;17.70;99.90;;;;;;5055658;28;20372;-68
2022/04/13 10:52:30;;;;;;;20.27;11.63;;;18.00;99.90;;;;;;5054725;28;20029;-67
2022/04/13 10:55:02;;;;;;;28.65;12.57;;;18.20;99.90;;;;;;5055983;28;20021;-68
2022/04/13 10:57:39;;;;;;;23.85;11.50;;;18.10;99.90;;;;;;5055322;28;20033;-67
2022/04/13 11:00:07;;;;;;;31.55;11.10;;;18.10;99.90;;;;;;5055397;28;20044;-67
2022/04/13 11:02:38;;;;;;;23.95;10.73;;;18.10;99.90;;;;;;5055532;28;20025;-67
2022/04/13 11:05:04;;;;;;;26.30;10.93;;;18.00;99.90;;;;;;5055179;28;20031;-68
2022/04/13 11:07:30;;;;;;;19.65;9.95;;;17.90;99.90;;;;;;5054947;28;20112;-68
2022/04/13 11:09:57;;;;;;;17.58;9.93;;;17.80;99.90;;;;;;5055035;28;20025;-68
2022/04/13 11:12:26;;;;;;;26.13;11.40;;;17.60;99.90;;;;;;5054968;28;20055;-68
2022/04/13 11:14:54;;;;;;;21.33;11.95;;;17.60;99.90;;;;;;5054800;28;20477;-68
2022/04/13 11:17:19;;;;;;;19.50;9.68;;;17.80;99.90;;;;;;5053870;22;20053;-68
2022/04/13 11:19:48;;;;;;;21.23;11.60;;;18.00;99.90;;;;;;5035234;28;20021;-68
2022/04/13 11:22:16;;;;;;;29.40;12.43;;;18.10;99.90;;;;;;5034998;28;20018;-68
2022/04/13 11:24:49;;;;;;;25.27;10.68;;;18.20;99.90;;;;;;5034856;28;20422;-68
2022/04/13 11:27:15;;;;;;;26.33;12.23;;;18.10;99.90;;;;;;5035119;28;20018;-68
2022/04/13 11:29:58;;;;;;;23.15;11.20;;;17.80;99.90;;;;;;5034779;28;20476;-68
2022/04/13 11:32:33;;;;;;;25.00;11.65;;;17.90;99.90;;;;;;5034734;28;20021;-68
2022/04/13 11:35:00;;;;;;;26.33;12.25;;;18.00;99.90;;;;;;5034743;28;20101;-68
2022/04/13 11:37:46;;;;;;;19.90;11.63;;;17.90;99.90;;;;;;5034596;28;20026;-68
2022/04/13 11:40:17;;;;;;;21.73;11.50;;;17.60;99.90;;;;;;5033851;28;20497;-68
2022/04/13 11:42:46;;;;;;;25.98;13.30;;;17.60;99.90;;;;;;5034613;28;20087;-68
2022/04/13 11:45:16;;;;;;;29.23;14.65;;;17.50;99.90;;;;;;5034438;28;20477;-68
2022/04/13 11:47:51;;;;;;;27.75;14.30;;;17.60;99.90;;;;;;5034681;28;20037;-68
2022/04/13 11:50:19;;;;;;;22.15;12.25;;;17.40;99.90;;;;;;5034571;28;20029;-68
2022/04/13 11:53:14;;;;;;;27.10;12.07;;;17.50;99.90;;;;;;5034553;28;20366;-68
2022/04/13 11:55:39;;;;;;;19.42;12.45;;;17.50;99.90;;;;;;5034643;28;20465;-68
2022/04/13 11:58:07;;;;;;;27.48;13.23;;;17.40;99.90;;;;;;5034288;28;20037;-68
2022/04/13 12:00:45;;;;;;;26.95;13.90;;;17.40;99.90;;;;;;5034239;28;20100;-68
2022/04/13 12:03:15;;;;;;;22.02;11.55;;;17.70;99.90;;;;;;5015476;28;20029;-67
2022/04/13 12:05:50;;;;;;;23.20;11.98;;;17.80;99.90;;;;;;5034287;28;20045;-67
2022/04/13 12:08:19;;;;;;;19.15;11.10;;;17.90;99.90;;;;;;5034632;28;20377;-71
2022/04/13 12:10:57;;;;;;;31.88;11.18;;;18.00;99.90;;;;;;5016593;28;20067;-67
2022/04/13 12:13:24;;;;;;;26.02;11.65;;;18.10;99.90;;;;;;5034003;28;20025;-70
2022/04/13 12:15:51;;;;;;;25.27;12.18;;;18.60;99.90;;;;;;5033844;28;20029;-68
2022/04/13 12:18:19;;;;;;;20.75;11.00;;;18.90;99.90;;;;;;5033882;28;20029;-68
2022/04/13 12:20:44;;;;;;;25.25;12.98;;;19.10;99.90;;;;;;5033777;28;20163;-68
2022/04/13 12:23:17;;;;;;;22.98;11.23;;;19.50;99.90;;;;;;5034297;28;20060;-68
2022/04/13 12:25:44;;;;;;;18.60;10.45;;;20.10;99.90;;;;;;5033580;28;20026;-68
2022/04/13 12:28:10;;;;;;;20.88;9.48;;;19.90;99.90;;;;;;5033546;28;20172;-68
2022/04/13 12:30:35;;;;;;;18.90;11.05;;;19.60;99.90;;;;;;5034147;28;20360;-71
2022/04/13 12:33:21;;;;;;;22.95;10.57;;;19.40;99.90;;;;;;5034026;28;20075;-72
2022/04/13 12:35:50;;;;;;;18.50;11.00;;;19.60;99.90;;;;;;5033756;28;20471;-69
2022/04/13 12:38:33;;;;;;;24.00;10.85;;;19.70;99.90;;;;;;5033514;28;20029;-68